KPUC/PUC METAR and TAF weather

Enter ICAO airport designator
Station Type Date Time Source
KPUC METAR 2022/06/25 22:32 UTC NOAA

KPUC 252232Z AUTO 31010G25KT 9SM -RA FEW075 FEW090 OVC110 20/10 A3022 RMK AO2 PK WND 29026/2222 WSHFT 2212 LTG DSNT E AND SE AND W RAB20 P0003 T02000100


Station Type Date Time Source
KPUC Decoded METAR 2022/06/25 22:32 UTC NOAA

PRICE CARBON COUNTY AIRPORT, UT, United States (KPUC) 39-37N 110-45W 2091M
Jun 25, 2022 - 06:32 PM EDT / 2022.06.25 2232 UTC
Wind: from the NW (310 degrees) at 12 MPH (10 KT) gusting to 29 MPH (25 KT):0
Visibility: 9 mile(s):0
Sky conditions: overcast
Weather: light rain; Lightning observed
Precipitation last hour: 0.03 inches
Temperature: 68.0 F (20.0 C)
Dew Point: 50.0 F (10.0 C)
Relative Humidity: 52%
Pressure (altimeter): 30.22 in. Hg (1023 hPa)
ob: KPUC 252232Z AUTO 31010G25KT 9SM -RA FEW075 FEW090 OVC110 20/10 A3022 RMK AO2 PK WND 29026/2222 WSHFT 2212 LTG DSNT E AND SE AND W RAB20 P0003 T02000100
cycle: 22

Station Type Date Time Source
KPUC TAF UTC NOAA

Error!

Example: see airport list